createdAt,value
2022-09-15T00:00:11.386Z,14.70
2022-09-15T00:00:33.303Z,12.55
2022-09-15T00:00:55.311Z,13.15
2022-09-15T00:01:18.558Z,12.50
2022-09-15T00:01:43.033Z,13.07
2022-09-15T00:02:05.622Z,12.77
2022-09-15T00:02:27.773Z,12.82
2022-09-15T00:02:51.529Z,12.00
2022-09-15T00:03:13.938Z,13.45
2022-09-15T00:03:35.925Z,11.70
2022-09-15T00:03:57.982Z,13.20
2022-09-15T00:04:20.098Z,13.07
2022-09-15T00:04:41.928Z,12.18
2022-09-15T00:05:05.900Z,12.13
2022-09-15T00:05:28.249Z,12.68
2022-09-15T00:05:52.022Z,12.68
2022-09-15T00:06:20.173Z,10.75
2022-09-15T00:06:42.001Z,12.38
2022-09-15T00:07:06.193Z,12.63
2022-09-15T00:07:28.192Z,12.13
2022-09-15T00:07:50.351Z,14.80
2022-09-15T00:08:15.582Z,13.15
2022-09-15T00:08:38.524Z,12.88
2022-09-15T00:09:04.034Z,11.98
2022-09-15T00:09:26.377Z,12.07
2022-09-15T00:09:48.431Z,11.98
2022-09-15T00:10:11.080Z,13.90
2022-09-15T00:10:40.442Z,12.43
2022-09-15T00:11:14.722Z,13.80
2022-09-15T00:11:41.123Z,11.48
2022-09-15T00:12:03.596Z,11.77
2022-09-15T00:12:26.667Z,11.13
2022-09-15T00:12:48.496Z,10.82
2022-09-15T00:13:12.845Z,12.95
2022-09-15T00:13:36.315Z,11.30
2022-09-15T00:14:01.294Z,11.52
2022-09-15T00:14:24.243Z,10.60
2022-09-15T00:14:50.110Z,11.05
2022-09-15T00:15:14.931Z,10.77
2022-09-15T00:15:36.776Z,12.35
2022-09-15T00:16:04.786Z,11.32
2022-09-15T00:16:31.169Z,11.82
2022-09-15T00:16:53.513Z,10.88
2022-09-15T00:17:15.717Z,11.77
2022-09-15T00:17:37.602Z,12.55
2022-09-15T00:18:03.422Z,11.13
2022-09-15T00:18:25.595Z,13.95
2022-09-15T00:18:53.297Z,12.50
2022-09-15T00:19:15.554Z,11.50
2022-09-15T00:19:38.879Z,11.93
2022-09-15T00:20:00.777Z,10.25
2022-09-15T00:20:22.924Z,12.80
2022-09-15T00:20:50.676Z,10.88
2022-09-15T00:21:18.276Z,12.10
2022-09-15T00:21:41.301Z,11.07
2022-09-15T00:22:03.179Z,11.25
2022-09-15T00:22:26.426Z,11.48
2022-09-15T00:22:48.990Z,11.88
2022-09-15T00:23:13.371Z,11.93
2022-09-15T00:23:36.519Z,11.55
2022-09-15T00:24:01.099Z,12.02
2022-09-15T00:24:23.040Z,12.23
2022-09-15T00:24:45.787Z,12.18
2022-09-15T00:25:09.392Z,12.85
2022-09-15T00:25:31.229Z,12.48
2022-09-15T00:25:54.095Z,11.40
2022-09-15T00:26:20.628Z,12.50
2022-09-15T00:26:42.551Z,13.35
2022-09-15T00:27:04.760Z,12.68
2022-09-15T00:27:26.884Z,11.05
2022-09-15T00:27:49.363Z,11.82
2022-09-15T00:28:13.963Z,12.88
2022-09-15T00:28:40.037Z,12.67
2022-09-15T00:29:02.912Z,11.65
2022-09-15T00:29:27.312Z,11.82
2022-09-15T00:29:49.221Z,13.27
2022-09-15T00:30:12.853Z,10.38
2022-09-15T00:30:34.820Z,11.73
2022-09-15T00:30:57.716Z,13.77
2022-09-15T00:31:22.302Z,12.05
2022-09-15T00:31:44.290Z,12.20
2022-09-15T00:32:06.193Z,10.68
2022-09-15T00:32:29.741Z,12.82
2022-09-15T00:32:51.801Z,11.85
2022-09-15T00:33:15.281Z,12.40
2022-09-15T00:33:37.584Z,13.60
2022-09-15T00:34:05.172Z,14.55
2022-09-15T00:34:27.292Z,11.75
2022-09-15T00:34:51.856Z,12.88
2022-09-15T00:35:13.668Z,11.38
2022-09-15T00:35:41.803Z,12.15
2022-09-15T00:36:07.408Z,10.73
2022-09-15T00:36:29.802Z,11.35
2022-09-15T00:37:23.499Z,11.20
2022-09-15T00:37:50.111Z,12.50
2022-09-15T00:38:13.425Z,12.48
2022-09-15T00:38:40.036Z,10.45
2022-09-15T00:39:02.027Z,12.38
2022-09-15T00:39:57.311Z,11.57
2022-09-15T00:40:56.130Z,11.98
2022-09-15T00:41:23.238Z,10.18
2022-09-15T00:41:45.507Z,11.80
2022-09-15T00:42:07.514Z,12.95
2022-09-15T00:42:31.515Z,12.82
2022-09-15T00:42:56.074Z,12.05
2022-09-15T00:43:44.799Z,11.57
2022-09-15T00:44:36.007Z,11.70
2022-09-15T00:45:03.431Z,11.00
2022-09-15T00:45:32.769Z,11.32
2022-09-15T00:45:54.636Z,10.98
2022-09-15T00:46:18.559Z,9.90
2022-09-15T00:46:43.504Z,10.25
2022-09-15T00:47:19.394Z,10.93
2022-09-15T00:47:45.363Z,13.73
2022-09-15T00:48:13.417Z,12.18
2022-09-15T00:48:37.972Z,13.60
2022-09-15T00:49:08.407Z,11.27
2022-09-15T00:49:34.683Z,12.25
2022-09-15T00:50:07.374Z,10.85
2022-09-15T00:50:32.689Z,11.18
2022-09-15T00:50:58.623Z,11.07
2022-09-15T00:51:29.696Z,10.40
2022-09-15T00:52:08.684Z,13.05
2022-09-15T00:52:48.574Z,11.13
2022-09-15T00:53:12.844Z,10.35
2022-09-15T00:53:36.867Z,10.93
2022-09-15T00:54:02.937Z,11.45
2022-09-15T00:54:40.132Z,11.95
2022-09-15T00:55:17.501Z,10.27
2022-09-15T00:55:47.902Z,12.48
2022-09-15T00:56:14.615Z,11.02
2022-09-15T00:56:41.378Z,13.15
2022-09-15T00:57:09.255Z,10.73
2022-09-15T00:57:42.563Z,10.68
2022-09-15T00:58:11.904Z,11.93
2022-09-15T00:58:53.840Z,13.80
2022-09-15T00:59:20.092Z,11.55
2022-09-15T00:59:44.432Z,14.13
2022-09-15T01:00:13.101Z,12.45
2022-09-15T01:00:35.818Z,11.43
2022-09-15T01:01:03.244Z,11.18
2022-09-15T01:01:28.760Z,12.57
2022-09-15T01:01:56.942Z,11.23
2022-09-15T01:02:24.138Z,12.00
2022-09-15T01:02:47.402Z,13.52
2022-09-15T01:03:09.540Z,13.70
2022-09-15T01:03:35.192Z,11.18
2022-09-15T01:03:57.265Z,12.30
2022-09-15T01:04:19.623Z,12.05
2022-09-15T01:04:44.848Z,10.98
2022-09-15T01:05:11.019Z,10.60
2022-09-15T01:05:43.101Z,10.05
2022-09-15T01:06:11.335Z,10.30
2022-09-15T01:06:41.172Z,11.65
2022-09-15T01:07:08.295Z,11.82
2022-09-15T01:07:41.150Z,12.73
2022-09-15T01:08:17.282Z,11.63
2022-09-15T01:09:01.755Z,10.90
2022-09-15T01:09:29.812Z,12.20
2022-09-15T01:10:01.928Z,10.20
2022-09-15T01:10:38.010Z,11.15
2022-09-15T01:11:00.758Z,10.13
2022-09-15T01:11:24.933Z,10.68
2022-09-15T01:11:47.155Z,10.65
2022-09-15T01:12:09.105Z,10.98
2022-09-15T01:12:33.454Z,12.48
2022-09-15T01:13:01.557Z,9.90
2022-09-15T01:13:27.573Z,10.90
2022-09-15T01:13:50.768Z,10.18
2022-09-15T01:14:15.394Z,12.43
2022-09-15T01:14:43.530Z,9.90
2022-09-15T01:15:06.024Z,11.18
2022-09-15T01:15:51.630Z,10.88
2022-09-15T01:16:53.520Z,10.38
2022-09-15T01:17:43.287Z,11.65
2022-09-15T01:18:05.146Z,9.63
2022-09-15T01:19:15.124Z,9.88
2022-09-15T01:20:05.473Z,10.65
2022-09-15T01:21:05.276Z,10.00
2022-09-15T01:22:49.093Z,9.50
2022-09-15T01:23:35.252Z,9.45
2022-09-15T01:24:14.180Z,9.68
2022-09-15T01:24:56.113Z,10.25
2022-09-15T01:25:36.261Z,9.43
2022-09-15T01:26:16.408Z,11.00
2022-09-15T01:26:46.641Z,9.63
2022-09-15T01:27:42.190Z,8.90
2022-09-15T01:28:07.293Z,10.68
2022-09-15T01:28:56.788Z,10.02
2022-09-15T01:29:41.985Z,9.40
2022-09-15T01:30:13.830Z,10.63
2022-09-15T01:30:39.675Z,9.27
2022-09-15T01:31:16.037Z,9.63
2022-09-15T01:32:11.107Z,9.60
2022-09-15T01:33:04.264Z,9.00
2022-09-15T01:34:01.313Z,9.55
2022-09-15T01:34:24.397Z,9.13
2022-09-15T01:35:10.555Z,8.93
2022-09-15T01:35:46.913Z,10.80
2022-09-15T01:36:19.149Z,10.45
2022-09-15T01:36:55.515Z,8.68
2022-09-15T01:37:28.069Z,10.05
2022-09-15T01:38:13.782Z,10.13
2022-09-15T01:38:55.103Z,9.25
2022-09-15T01:39:34.380Z,12.10
2022-09-15T01:40:02.568Z,10.02
2022-09-15T01:40:29.882Z,9.45
2022-09-15T01:41:02.132Z,11.55
2022-09-15T01:41:30.505Z,9.23
2022-09-15T01:42:05.311Z,9.77
2022-09-15T01:42:28.108Z,10.60
2022-09-15T01:42:51.977Z,11.30
2022-09-15T01:43:23.210Z,9.35
2022-09-15T01:44:09.860Z,9.07
2022-09-15T01:44:40.614Z,9.05
2022-09-15T01:45:12.443Z,8.82
2022-09-15T01:45:36.871Z,9.75
2022-09-15T01:46:00.724Z,9.98
2022-09-15T01:46:26.309Z,9.55
2022-09-15T01:46:59.187Z,9.10
2022-09-15T01:47:22.487Z,10.05
2022-09-15T01:47:48.576Z,9.60
2022-09-15T01:48:12.199Z,10.95
2022-09-15T01:48:35.946Z,10.20
2022-09-15T01:49:00.978Z,9.80
2022-09-15T01:49:29.212Z,9.95
2022-09-15T01:49:59.426Z,9.38
2022-09-15T01:50:26.687Z,9.98
2022-09-15T01:50:56.304Z,10.07
2022-09-15T01:51:18.557Z,10.68
2022-09-15T01:51:43.830Z,10.93
2022-09-15T01:52:07.839Z,9.30
2022-09-15T01:52:33.548Z,10.50
2022-09-15T01:53:00.358Z,11.90
2022-09-15T01:53:29.097Z,10.73
2022-09-15T01:53:55.028Z,10.00
2022-09-15T01:54:22.091Z,11.02
2022-09-15T01:54:49.379Z,10.60
2022-09-15T01:55:29.675Z,9.57
2022-09-15T01:56:09.574Z,9.50
2022-09-15T01:56:34.469Z,9.63
2022-09-15T01:56:57.645Z,9.18
2022-09-15T01:57:22.430Z,9.73
2022-09-15T01:57:45.541Z,9.05
2022-09-15T01:58:10.440Z,10.60
2022-09-15T01:58:35.142Z,10.15
2022-09-15T01:58:57.532Z,10.38
2022-09-15T01:59:19.546Z,10.10
2022-09-15T01:59:41.775Z,9.85
2022-09-15T02:00:05.351Z,10.20
2022-09-15T02:00:30.863Z,9.77
2022-09-15T02:01:47.404Z,9.05
2022-09-15T02:02:14.818Z,10.32
2022-09-15T02:02:42.970Z,9.68
2022-09-15T02:03:18.723Z,9.88
2022-09-15T02:03:44.835Z,9.82
2022-09-15T02:04:31.992Z,10.32
2022-09-15T02:05:04.273Z,9.50
2022-09-15T02:05:44.641Z,8.95
2022-09-15T02:06:15.893Z,9.45
2022-09-15T02:06:53.509Z,11.20
2022-09-15T02:07:44.982Z,9.82
2022-09-15T02:08:13.120Z,9.40
2022-09-15T02:08:43.030Z,10.88
2022-09-15T02:09:13.053Z,9.75
2022-09-15T02:09:46.710Z,11.05
2022-09-15T02:10:15.354Z,9.13
2022-09-15T02:10:49.274Z,10.30
2022-09-15T02:11:30.055Z,9.88
2022-09-15T02:12:03.152Z,9.80
2022-09-15T02:12:38.476Z,10.38
2022-09-15T02:13:31.178Z,9.98
2022-09-15T02:13:56.630Z,10.18
2022-09-15T02:14:50.021Z,10.40
2022-09-15T02:15:16.792Z,9.65
2022-09-15T02:15:43.713Z,10.05
2022-09-15T02:16:19.847Z,9.30
2022-09-15T02:16:46.745Z,9.27
2022-09-15T02:17:14.590Z,9.20
2022-09-15T02:17:42.971Z,9.95
2022-09-15T02:18:08.644Z,12.02
2022-09-15T02:18:55.153Z,9.60
2022-09-15T02:19:46.867Z,9.00
2022-09-15T02:20:23.756Z,9.57
2022-09-15T02:20:50.959Z,10.77
2022-09-15T02:21:24.119Z,9.25
2022-09-15T02:22:04.391Z,9.70
2022-09-15T02:22:36.509Z,9.65
2022-09-15T02:23:09.430Z,9.57
2022-09-15T02:23:37.640Z,9.70
2022-09-15T02:24:06.681Z,9.88
2022-09-15T02:24:38.070Z,9.45
2022-09-15T02:25:08.318Z,9.15
2022-09-15T02:25:38.176Z,9.25
2022-09-15T02:26:07.294Z,9.13
2022-09-15T02:26:32.021Z,9.55
2022-09-15T02:26:55.632Z,9.88
2022-09-15T02:27:29.353Z,10.55
2022-09-15T02:27:56.094Z,9.55
2022-09-15T02:28:24.269Z,9.77
2022-09-15T02:28:49.147Z,9.85
2022-09-15T02:29:15.175Z,9.48
2022-09-15T02:29:38.254Z,9.35
2022-09-15T02:30:06.466Z,9.45
2022-09-15T02:30:30.892Z,9.10
2022-09-15T02:30:59.291Z,8.88
2022-09-15T02:31:24.508Z,9.32
2022-09-15T02:31:48.860Z,9.52
2022-09-15T02:32:16.465Z,10.50
2022-09-15T02:32:45.516Z,9.63
2022-09-15T02:33:14.648Z,10.75
2022-09-15T02:33:44.273Z,9.75
2022-09-15T02:34:15.938Z,9.98
2022-09-15T02:34:41.999Z,10.02
2022-09-15T02:35:17.024Z,10.27
2022-09-15T02:35:41.391Z,9.45
2022-09-15T02:36:07.045Z,11.05
2022-09-15T02:36:32.595Z,10.38
2022-09-15T02:36:56.344Z,9.70
2022-09-15T02:37:21.232Z,10.70
2022-09-15T02:37:46.804Z,9.60
2022-09-15T02:38:12.474Z,9.77
2022-09-15T02:38:44.075Z,9.43
2022-09-15T02:39:10.623Z,9.43
2022-09-15T02:39:41.504Z,9.55
2022-09-15T02:40:04.761Z,9.55
2022-09-15T02:40:29.166Z,10.02
2022-09-15T02:40:51.303Z,10.75
2022-09-15T02:41:14.516Z,10.32
2022-09-15T02:41:40.344Z,10.05
2022-09-15T02:42:06.821Z,9.98
2022-09-15T02:42:32.649Z,9.18
2022-09-15T02:42:58.536Z,9.55
2022-09-15T02:43:20.638Z,9.63
2022-09-15T02:43:49.383Z,13.60
2022-09-15T02:44:15.177Z,10.60
2022-09-15T02:44:39.034Z,10.07
2022-09-15T02:45:02.204Z,9.40
2022-09-15T02:45:25.788Z,10.48
2022-09-15T02:45:47.926Z,9.60
2022-09-15T02:46:10.042Z,10.70
2022-09-15T02:46:31.906Z,9.45
2022-09-15T02:46:53.770Z,9.27
2022-09-15T02:47:15.652Z,10.43
2022-09-15T02:47:37.675Z,9.38
2022-09-15T02:47:59.985Z,9.00
2022-09-15T02:48:22.306Z,8.50
2022-09-15T02:48:44.393Z,9.45
2022-09-15T02:49:06.265Z,10.00
2022-09-15T02:49:29.817Z,10.02
2022-09-15T02:49:54.512Z,10.10
2022-09-15T02:50:20.519Z,10.55
2022-09-15T02:50:42.463Z,8.80
2022-09-15T02:51:04.305Z,8.75
2022-09-15T02:51:27.153Z,9.32
2022-09-15T02:51:51.794Z,10.88
2022-09-15T02:52:14.116Z,9.88
2022-09-15T02:52:36.009Z,10.23
2022-09-15T02:53:00.297Z,10.98
2022-09-15T02:53:22.560Z,10.00
2022-09-15T02:53:46.632Z,11.23
2022-09-15T02:54:08.884Z,9.95
2022-09-15T02:54:32.950Z,9.23
2022-09-15T02:54:56.222Z,8.80
2022-09-15T02:55:18.182Z,9.93
2022-09-15T02:55:43.300Z,9.50
2022-09-15T02:56:06.662Z,9.70
2022-09-15T02:56:28.772Z,10.15
2022-09-15T02:56:51.035Z,9.93
2022-09-15T02:57:15.544Z,11.05
2022-09-15T02:57:37.823Z,10.07
2022-09-15T02:58:01.098Z,9.55
2022-09-15T02:58:22.895Z,9.68
2022-09-15T02:58:44.872Z,9.48
2022-09-15T02:59:07.814Z,10.10
2022-09-15T02:59:49.745Z,10.52
2022-09-15T03:00:18.592Z,9.65
2022-09-15T03:00:40.737Z,10.23
2022-09-15T03:01:07.615Z,11.05
2022-09-15T03:01:35.150Z,10.40
2022-09-15T03:01:59.041Z,9.90
2022-09-15T03:02:20.982Z,9.60
2022-09-15T03:02:45.625Z,9.45
2022-09-15T03:03:07.453Z,9.60
2022-09-15T03:03:29.423Z,9.52
2022-09-15T03:03:53.397Z,9.93
2022-09-15T03:04:20.460Z,10.18
2022-09-15T03:04:42.533Z,9.68
2022-09-15T03:05:04.863Z,9.15
2022-09-15T03:05:29.198Z,9.45
2022-09-15T03:05:51.807Z,10.00
2022-09-15T03:06:19.681Z,11.85
2022-09-15T03:06:41.497Z,12.73
2022-09-15T03:07:06.434Z,10.02
2022-09-15T03:07:28.631Z,9.80
2022-09-15T03:07:51.721Z,9.63
2022-09-15T03:08:14.144Z,11.00
2022-09-15T03:08:36.040Z,10.75
2022-09-15T03:09:05.295Z,10.27
2022-09-15T03:09:27.072Z,9.93
2022-09-15T03:09:51.852Z,10.05
2022-09-15T03:10:14.379Z,10.02
2022-09-15T03:10:40.383Z,9.90
2022-09-15T03:11:02.225Z,10.63
2022-09-15T03:11:26.884Z,10.50
2022-09-15T03:11:51.149Z,10.18
2022-09-15T03:12:14.173Z,9.63
2022-09-15T03:12:40.569Z,10.02
2022-09-15T03:13:02.470Z,9.95
2022-09-15T03:13:24.343Z,10.00
2022-09-15T03:13:47.103Z,12.30
2022-09-15T03:14:09.585Z,11.18
2022-09-15T03:14:32.709Z,9.30
2022-09-15T03:14:54.541Z,10.50
2022-09-15T03:15:18.866Z,9.80
2022-09-15T03:15:41.980Z,9.98
2022-09-15T03:16:13.800Z,10.07
2022-09-15T03:16:36.057Z,10.18
2022-09-15T03:16:58.533Z,10.88
2022-09-15T03:17:20.428Z,11.43
2022-09-15T03:17:43.619Z,10.73
2022-09-15T03:18:07.934Z,11.98
2022-09-15T03:18:32.547Z,11.55
2022-09-15T03:18:56.019Z,13.00
2022-09-15T03:19:23.161Z,11.73
2022-09-15T03:19:45.435Z,9.88
2022-09-15T03:20:09.285Z,11.68
2022-09-15T03:20:33.449Z,10.55
2022-09-15T03:20:59.353Z,9.73
2022-09-15T03:21:21.863Z,10.95
2022-09-15T03:21:44.647Z,10.10
2022-09-15T03:22:07.006Z,9.80
2022-09-15T03:22:29.085Z,9.55
2022-09-15T03:22:51.177Z,10.18
2022-09-15T03:23:15.136Z,11.80
2022-09-15T03:23:37.301Z,10.40
2022-09-15T03:24:00.572Z,10.27
2022-09-15T03:24:26.103Z,12.15
2022-09-15T03:24:48.096Z,14.82
2022-09-15T03:25:11.293Z,11.50
2022-09-15T03:25:33.271Z,11.98
2022-09-15T03:25:56.005Z,10.10
2022-09-15T03:26:21.084Z,11.07
2022-09-15T03:26:43.106Z,10.60
2022-09-15T03:27:05.750Z,9.90
2022-09-15T03:27:27.812Z,11.50
2022-09-15T03:27:49.621Z,10.77
2022-09-15T03:28:11.547Z,11.60
2022-09-15T03:28:34.391Z,11.68
2022-09-15T03:28:58.649Z,11.02
2022-09-15T03:29:20.473Z,10.85
2022-09-15T03:29:45.611Z,10.88
2022-09-15T03:30:08.386Z,12.57
2022-09-15T03:30:30.251Z,12.10
2022-09-15T03:30:53.550Z,13.02
2022-09-15T03:31:18.026Z,10.98
2022-09-15T03:31:39.968Z,12.20
2022-09-15T03:32:02.222Z,11.10
2022-09-15T03:32:24.052Z,10.70
2022-09-15T03:32:46.050Z,10.90
2022-09-15T03:33:09.493Z,10.23
2022-09-15T03:33:34.459Z,11.05
2022-09-15T03:33:56.491Z,11.27
2022-09-15T03:34:19.439Z,10.50
2022-09-15T03:34:41.417Z,10.80
2022-09-15T03:35:07.018Z,11.32
2022-09-15T03:35:29.413Z,11.35
2022-09-15T03:35:53.083Z,10.95
2022-09-15T03:36:17.708Z,11.87
2022-09-15T03:36:43.565Z,11.10
2022-09-15T03:37:05.680Z,14.73
2022-09-15T03:37:27.906Z,11.98
2022-09-15T03:37:52.210Z,10.98
2022-09-15T03:38:15.053Z,11.55
2022-09-15T03:38:37.199Z,10.57
2022-09-15T03:38:59.601Z,13.32
2022-09-15T03:39:23.459Z,10.95
2022-09-15T03:39:45.441Z,11.38
2022-09-15T03:40:08.372Z,12.45
2022-09-15T03:40:33.966Z,10.32
2022-09-15T03:41:08.044Z,10.20
2022-09-15T03:41:30.113Z,10.88
2022-09-15T03:41:56.193Z,10.43
2022-09-15T03:42:21.545Z,11.60
2022-09-15T03:42:44.108Z,10.68
2022-09-15T03:43:06.062Z,11.15
2022-09-15T03:43:29.152Z,12.38
2022-09-15T03:43:56.540Z,11.93
2022-09-15T03:44:18.487Z,11.68
2022-09-15T03:44:41.492Z,10.80
2022-09-15T03:45:03.849Z,11.13
2022-09-15T03:45:30.642Z,12.10
2022-09-15T03:45:52.932Z,10.45
2022-09-15T03:46:15.338Z,10.77
2022-09-15T03:46:43.805Z,11.43
2022-09-15T03:47:08.868Z,11.35
2022-09-15T03:47:30.677Z,11.25
2022-09-15T03:47:52.835Z,11.95
2022-09-15T03:48:14.944Z,11.25
2022-09-15T03:48:37.883Z,11.65
2022-09-15T03:49:05.220Z,10.88
2022-09-15T03:49:27.219Z,10.90
2022-09-15T03:49:49.053Z,11.73
2022-09-15T03:50:13.173Z,11.55
2022-09-15T03:50:37.535Z,12.23
2022-09-15T03:50:59.400Z,13.18
2022-09-15T03:51:22.313Z,12.93
2022-09-15T03:51:44.657Z,13.32
2022-09-15T03:52:06.684Z,11.75
2022-09-15T03:52:32.068Z,10.40
2022-09-15T03:52:58.186Z,12.43
2022-09-15T03:53:20.913Z,12.20
2022-09-15T03:53:43.937Z,10.85
2022-09-15T03:54:08.665Z,11.70
2022-09-15T03:54:30.578Z,12.30
2022-09-15T03:54:52.433Z,12.88
2022-09-15T03:55:14.718Z,12.95
2022-09-15T03:55:39.046Z,11.00
2022-09-15T03:56:25.148Z,11.48
2022-09-15T03:56:52.570Z,11.88
2022-09-15T03:57:14.415Z,12.55
2022-09-15T03:57:36.696Z,10.70
2022-09-15T03:58:02.596Z,11.60
2022-09-15T03:58:27.822Z,11.15
2022-09-15T04:00:03.179Z,12.15
2022-09-15T04:00:34.879Z,13.88
2022-09-15T04:01:47.283Z,11.63
2022-09-15T04:02:10.408Z,11.40
2022-09-15T04:02:34.179Z,12.07
2022-09-15T04:02:56.040Z,14.05
2022-09-15T04:03:17.968Z,11.52
2022-09-15T04:03:45.199Z,12.30
2022-09-15T04:04:09.675Z,12.85
2022-09-15T04:04:35.092Z,11.35
2022-09-15T04:05:02.472Z,12.18
2022-09-15T04:05:24.234Z,14.23
2022-09-15T04:05:46.208Z,14.40
2022-09-15T04:06:14.892Z,11.25
2022-09-15T04:06:37.426Z,12.50
2022-09-15T04:06:59.597Z,13.45
2022-09-15T04:07:24.157Z,12.70
2022-09-15T04:07:46.801Z,12.67
2022-09-15T04:08:12.396Z,11.95
2022-09-15T04:08:34.417Z,11.35
2022-09-15T04:08:59.314Z,11.52
2022-09-15T04:09:21.880Z,10.77
2022-09-15T04:09:43.970Z,11.63
2022-09-15T04:10:08.692Z,12.55
2022-09-15T04:10:31.582Z,12.48
2022-09-15T04:10:55.672Z,11.20
2022-09-15T04:11:19.652Z,13.80
2022-09-15T04:11:41.612Z,12.10
2022-09-15T04:12:04.227Z,12.05
2022-09-15T04:12:26.013Z,12.80
2022-09-15T04:12:48.754Z,11.00
2022-09-15T04:13:10.584Z,10.93
2022-09-15T04:13:32.695Z,12.15
2022-09-15T04:13:54.780Z,12.80
2022-09-15T04:14:16.867Z,12.68
2022-09-15T04:14:38.934Z,12.45
2022-09-15T04:15:01.432Z,12.45
2022-09-15T04:15:23.525Z,12.05
2022-09-15T04:15:45.363Z,11.77
2022-09-15T04:16:10.549Z,11.55
2022-09-15T04:16:33.912Z,11.50
2022-09-15T04:17:00.696Z,12.18
2022-09-15T04:17:22.781Z,11.95
2022-09-15T04:17:47.779Z,11.73
2022-09-15T04:18:12.928Z,12.55
2022-09-15T04:18:35.474Z,14.27
2022-09-15T04:18:58.054Z,13.57
2022-09-15T04:19:20.112Z,11.93
2022-09-15T04:19:42.824Z,12.77
2022-09-15T04:20:05.537Z,12.93
2022-09-15T04:20:27.638Z,12.35
2022-09-15T04:20:50.606Z,12.75
2022-09-15T04:21:21.176Z,13.45
2022-09-15T04:21:45.412Z,13.43
2022-09-15T04:22:08.065Z,14.48
2022-09-15T04:22:32.983Z,13.35
2022-09-15T04:22:55.168Z,11.80
2022-09-15T04:23:26.456Z,12.77
2022-09-15T04:23:52.008Z,12.45
2022-09-15T04:24:17.287Z,13.95
2022-09-15T04:24:39.598Z,13.52
2022-09-15T04:25:03.895Z,13.02
2022-09-15T04:25:37.428Z,13.43
2022-09-15T04:26:06.312Z,11.55
2022-09-15T04:26:33.548Z,13.88
2022-09-15T04:26:55.789Z,13.93
2022-09-15T04:27:17.680Z,13.20
2022-09-15T04:27:39.891Z,14.23
2022-09-15T04:28:02.145Z,13.98
2022-09-15T04:28:26.176Z,15.07
2022-09-15T04:28:48.211Z,14.05
2022-09-15T04:29:15.990Z,14.02
2022-09-15T04:29:38.105Z,13.27
2022-09-15T04:30:03.610Z,12.35
2022-09-15T04:30:26.001Z,13.40
2022-09-15T04:30:48.008Z,14.00
2022-09-15T04:31:16.253Z,12.88
2022-09-15T04:31:40.586Z,12.57
2022-09-15T04:32:03.416Z,12.85
2022-09-15T04:32:25.373Z,12.55
2022-09-15T04:32:49.240Z,13.48
2022-09-15T04:33:13.776Z,12.52
2022-09-15T04:33:38.514Z,11.77
2022-09-15T04:34:00.692Z,12.27
2022-09-15T04:34:27.145Z,13.18
2022-09-15T04:34:50.261Z,16.17
2022-09-15T04:35:12.542Z,13.52
2022-09-15T04:35:34.376Z,15.43
2022-09-15T04:36:07.200Z,12.43
2022-09-15T04:36:30.533Z,13.63
2022-09-15T04:36:52.856Z,14.80
2022-09-15T04:37:17.711Z,14.85
2022-09-15T04:37:39.816Z,14.05
2022-09-15T04:38:03.790Z,12.07
2022-09-15T04:38:25.674Z,12.52
2022-09-15T04:38:48.158Z,13.50
2022-09-15T04:39:10.042Z,11.32
2022-09-15T04:39:32.007Z,13.85
2022-09-15T04:39:54.080Z,13.95
2022-09-15T04:40:16.079Z,13.23
2022-09-15T04:40:41.066Z,13.70
2022-09-15T04:41:04.276Z,13.98
2022-09-15T04:41:30.527Z,12.07
2022-09-15T04:41:52.770Z,14.55
2022-09-15T04:42:15.780Z,13.38
2022-09-15T04:42:37.572Z,12.52
2022-09-15T04:43:04.605Z,12.52
2022-09-15T04:43:29.988Z,13.18
2022-09-15T04:43:52.286Z,15.10
2022-09-15T04:44:17.394Z,12.95
2022-09-15T04:44:45.112Z,14.32
2022-09-15T04:45:07.599Z,13.00
2022-09-15T04:45:30.433Z,13.75
2022-09-15T04:45:52.397Z,13.43
2022-09-15T04:46:15.598Z,13.90
2022-09-15T04:46:38.579Z,12.25
2022-09-15T04:47:00.777Z,12.50
2022-09-15T04:47:25.239Z,11.40
2022-09-15T04:47:51.714Z,13.23
2022-09-15T04:48:13.797Z,14.13
2022-09-15T04:48:38.598Z,14.00
2022-09-15T04:49:02.648Z,15.75
2022-09-15T04:49:29.818Z,14.15
2022-09-15T04:49:56.228Z,12.02
2022-09-15T04:50:21.060Z,13.63
2022-09-15T04:50:43.084Z,14.23
2022-09-15T04:51:08.655Z,14.63
2022-09-15T04:51:31.089Z,12.98
2022-09-15T04:51:55.960Z,12.23
2022-09-15T04:52:17.893Z,13.13
2022-09-15T04:52:40.178Z,14.48
2022-09-15T04:53:02.934Z,13.88
2022-09-15T04:53:24.749Z,13.32
2022-09-15T04:53:47.793Z,14.13
2022-09-15T04:54:09.777Z,12.30
2022-09-15T04:54:35.807Z,12.18
2022-09-15T04:54:58.756Z,13.18
2022-09-15T04:55:20.975Z,13.32
2022-09-15T04:55:43.602Z,12.82
2022-09-15T04:56:17.508Z,12.18
2022-09-15T04:56:39.953Z,12.20
2022-09-15T04:57:08.674Z,11.30
2022-09-15T04:57:33.118Z,12.73
2022-09-15T04:57:55.494Z,12.52
2022-09-15T04:58:17.746Z,12.45
2022-09-15T04:58:44.921Z,11.95
2022-09-15T04:59:16.837Z,12.15
2022-09-15T04:59:40.861Z,12.10
2022-09-15T05:00:09.591Z,11.98
2022-09-15T05:00:35.167Z,12.93
2022-09-15T05:00:59.269Z,13.88
2022-09-15T05:01:26.346Z,14.38
2022-09-15T05:01:49.084Z,12.23
2022-09-15T05:02:13.682Z,13.75
2022-09-15T05:02:35.834Z,11.95
2022-09-15T05:03:01.610Z,11.85
2022-09-15T05:03:23.598Z,13.07
2022-09-15T05:03:46.685Z,12.20
2022-09-15T05:04:08.902Z,11.35
2022-09-15T05:04:31.065Z,13.02
2022-09-15T05:04:53.012Z,12.38
2022-09-15T05:05:15.303Z,13.60
2022-09-15T05:05:37.567Z,13.18
2022-09-15T05:05:59.463Z,11.80
2022-09-15T05:06:25.435Z,12.85
2022-09-15T05:06:47.418Z,12.52
2022-09-15T05:07:11.559Z,12.82
2022-09-15T05:07:36.532Z,13.93
2022-09-15T05:08:03.981Z,13.95
2022-09-15T05:08:30.567Z,14.50
2022-09-15T05:08:57.153Z,14.82
2022-09-15T05:09:19.363Z,12.38
2022-09-15T05:09:41.711Z,12.48
2022-09-15T05:10:03.899Z,12.77
2022-09-15T05:10:25.994Z,12.70
2022-09-15T05:10:48.253Z,12.60
2022-09-15T05:11:16.587Z,11.93
2022-09-15T05:11:42.598Z,12.98
2022-09-15T05:12:08.142Z,13.75
2022-09-15T05:12:29.973Z,12.75
2022-09-15T05:12:52.110Z,14.13
2022-09-15T05:13:14.267Z,12.57
2022-09-15T05:13:42.506Z,11.73
2022-09-15T05:14:06.768Z,12.57
2022-09-15T05:14:29.116Z,14.18
2022-09-15T05:14:57.628Z,13.07
2022-09-15T05:15:20.157Z,13.25
2022-09-15T05:15:43.949Z,12.05
2022-09-15T05:16:22.377Z,12.20
2022-09-15T05:16:44.387Z,12.32
2022-09-15T05:17:08.478Z,12.73
2022-09-15T05:17:36.564Z,11.95
2022-09-15T05:17:58.849Z,13.05
2022-09-15T05:18:20.757Z,12.75
2022-09-15T05:18:46.840Z,12.68
2022-09-15T05:19:10.459Z,12.45
2022-09-15T05:19:32.492Z,12.00
2022-09-15T05:19:55.257Z,12.80
2022-09-15T05:20:19.639Z,11.88
2022-09-15T05:20:42.877Z,12.65
2022-09-15T05:21:09.940Z,12.00
2022-09-15T05:21:35.402Z,10.70
2022-09-15T05:21:57.645Z,11.82
2022-09-15T05:22:21.167Z,11.20
2022-09-15T05:22:44.332Z,10.75
2022-09-15T05:23:11.147Z,10.30
2022-09-15T05:23:34.600Z,10.88
2022-09-15T05:23:56.592Z,10.98
2022-09-15T05:24:18.483Z,11.15
2022-09-15T05:24:48.076Z,11.23
2022-09-15T05:25:13.154Z,12.90
2022-09-15T05:25:35.365Z,11.75
2022-09-15T05:26:02.439Z,10.95
2022-09-15T05:26:34.036Z,10.68
2022-09-15T05:26:59.084Z,10.52
2022-09-15T05:27:21.271Z,11.25
2022-09-15T05:27:44.432Z,11.82
2022-09-15T05:28:08.695Z,11.10
2022-09-15T05:28:33.825Z,10.70
2022-09-15T05:29:24.528Z,10.60
2022-09-15T05:30:00.327Z,11.07
2022-09-15T05:30:42.491Z,10.82
2022-09-15T05:31:19.514Z,10.68
2022-09-15T05:31:41.639Z,10.38
2022-09-15T05:32:03.504Z,11.63
2022-09-15T05:32:25.913Z,12.07
2022-09-15T05:32:52.717Z,11.95
2022-09-15T05:33:14.591Z,11.02
2022-09-15T05:33:36.541Z,10.27
2022-09-15T05:34:00.862Z,10.50
2022-09-15T05:34:22.993Z,12.90
2022-09-15T05:34:47.064Z,11.07
2022-09-15T05:35:09.921Z,12.60
2022-09-15T05:35:31.950Z,11.38
2022-09-15T05:35:59.688Z,12.45
2022-09-15T05:36:25.975Z,10.50
2022-09-15T05:36:47.910Z,10.90
2022-09-15T05:37:11.561Z,11.13
2022-09-15T05:37:38.991Z,11.50
2022-09-15T05:38:00.989Z,10.27
2022-09-15T05:38:28.382Z,12.48
2022-09-15T05:38:50.743Z,11.07
2022-09-15T05:39:14.053Z,12.93
2022-09-15T05:39:36.361Z,11.65
2022-09-15T05:40:01.251Z,10.02
2022-09-15T05:40:25.117Z,9.48
2022-09-15T05:40:48.037Z,10.40
2022-09-15T05:41:18.721Z,10.73
2022-09-15T05:41:41.476Z,10.35
2022-09-15T05:42:03.818Z,11.07
2022-09-15T05:42:33.181Z,10.45
2022-09-15T05:42:55.539Z,10.57
2022-09-15T05:43:18.259Z,10.65
2022-09-15T05:43:49.171Z,10.45